Time;durP1;ratioP1;P1;durP2;ratioP2;P2;SDS_P1;SDS_P2;PMS_P1;PMS_P2;Temp;Humidity;BMP_temperature;BMP_pressure;BME280_temperature;BME280_humidity;BME280_pressure;Samples;Min_cycle;Max_cycle;Signal;HPM_P1;HPM_P2
2023/01/17 00:01:08;;;;;;;;;7.50;5.75;;;;;5.04;70.39;98308.94;5012843;28;48054;-60
2023/01/17 00:09:51;;;;;;;;;5.75;4.75;;;;;4.79;70.89;98270.03;5031147;28;45629;-61
2023/01/17 00:11:49;;;;;;;;;5.00;3.80;;;;;5.01;70.68;98292.03;5031510;28;45851;-60
2023/01/17 00:14:14;;;;;;;;;4.50;3.00;;;;;5.06;70.17;98288.59;5029493;28;45859;-60
2023/01/17 00:16:40;;;;;;;;;3.25;3.25;;;;;5.01;70.46;98286.59;5030527;28;45509;-60
2023/01/17 01:36:01;;;;;;;;;4.75;2.00;;;;;4.82;71.19;98226.09;5036745;28;75408;-62
2023/01/17 01:38:27;;;;;;;;;6.75;5.50;;;;;4.81;70.84;98224.41;5038024;28;45244;-62
2023/01/17 01:40:54;;;;;;;;;7.75;5.25;;;;;4.99;71.96;98241.69;5020216;28;45285;-61
2023/01/17 01:43:38;;;;;;;;;5.00;5.00;;;;;5.00;72.12;98244.16;5020477;28;45340;-61
2023/01/17 01:46:03;;;;;;;;;5.00;5.00;;;;;4.84;72.26;98213.09;5019338;28;46704;-62
2023/01/17 01:48:32;;;;;;;;;5.50;5.00;;;;;5.01;71.96;98239.53;5037532;28;45405;-61
2023/01/17 01:50:58;;;;;;;;;5.40;3.80;;;;;4.96;71.62;98225.84;5037572;28;45500;-61
2023/01/17 01:53:23;;;;;;;;;2.00;2.00;;;;;4.99;71.55;98234.38;5003456;28;45358;-61
2023/01/17 01:55:49;;;;;;;;;5.75;5.00;;;;;5.07;72.08;98238.59;4986593;28;47387;-61
2023/01/17 01:58:26;;;;;;;;;5.50;4.75;;;;;4.88;71.26;98199.84;5009197;28;45900;-61
2023/01/17 02:00:52;;;;;;;;;7.40;5.20;;;;;5.05;71.55;98226.31;5015866;28;45447;-61
2023/01/17 02:03:23;;;;;;;;;3.75;2.25;;;;;5.00;71.51;98211.53;5033359;28;45548;-62
2023/01/17 02:05:48;;;;;;;;;4.00;1.80;;;;;5.07;72.05;98211.41;5020080;28;45496;-61
2023/01/17 02:08:16;;;;;;;;;8.25;4.00;;;;;5.08;71.64;98212.25;5019528;28;45395;-61
2023/01/17 02:10:42;;;;;;;;;3.80;2.00;;;;;5.00;71.58;98202.56;5037623;28;45770;-61
2023/01/17 02:13:08;;;;;;;;;1.60;1.60;;;;;5.05;71.80;98199.94;5037388;28;45608;-61
2023/01/17 02:15:58;;;;;;;;;5.00;5.00;;;;;5.08;71.99;98204.09;5037355;28;45246;-61
2023/01/17 02:18:26;;;;;;;;;6.00;6.00;;;;;4.94;71.54;98170.88;5037103;28;45352;-61
2023/01/17 02:21:13;;;;;;;;;5.40;5.00;;;;;4.98;72.18;98197.38;5037796;28;45283;-61
2023/01/17 02:24:01;;;;;;;;;5.00;5.00;;;;;4.75;71.95;98165.56;5037612;28;45331;-61
2023/01/17 02:26:44;;;;;;;;;6.80;5.60;;;;;4.88;72.79;98197.97;5036856;28;46574;-61
2023/01/17 02:29:40;;;;;;;;;5.20;5.20;;;;;4.81;72.40;98191.00;5037283;28;45268;-62
2023/01/17 02:32:41;;;;;;;;;3.80;3.80;;;;;4.79;72.80;98182.25;5037310;28;45338;-61
2023/01/17 02:35:12;;;;;;;;;7.20;5.60;;;;;4.79;72.25;98179.53;5019446;28;45342;-61
2023/01/17 02:38:05;;;;;;;;;6.00;6.00;;;;;4.76;72.76;98172.69;5002887;28;48302;-61
2023/01/17 02:40:36;;;;;;;;;8.20;7.20;;;;;4.74;71.92;98162.03;5019187;28;45816;-61
2023/01/17 02:43:05;;;;;;;;;8.00;7.20;;;;;4.73;72.89;98165.81;5003290;28;45300;-61
2023/01/17 02:45:30;;;;;;;;;7.40;5.40;;;;;4.78;72.63;98158.84;5002080;28;45686;-61
2023/01/17 02:47:56;;;;;;;;;12.25;9.50;;;;;4.74;73.09;98143.03;5037080;28;45264;-61
2023/01/17 02:50:24;;;;;;;;;7.75;7.75;;;;;4.62;72.56;98120.47;5036993;28;45245;-61
2023/01/17 02:53:03;;;;;;;;;8.00;5.60;;;;;4.73;72.52;98135.94;5037311;28;45406;-61
2023/01/17 02:55:47;;;;;;;;;8.40;8.40;;;;;4.52;72.17;98095.75;5019832;28;45272;-61
2023/01/17 02:58:34;;;;;;;;;5.60;5.00;;;;;4.54;72.18;98094.47;5018611;28;47625;-61
2023/01/17 03:01:15;;;;;;;;;6.20;6.00;;;;;4.76;71.88;98118.34;5035489;28;45415;-61
2023/01/17 03:03:52;;;;;;;;;8.40;6.00;;;;;4.71;72.31;98115.50;5003242;28;46107;-61
2023/01/17 03:06:43;;;;;;;;;8.40;6.40;;;;;4.58;72.12;98109.25;5019323;28;45828;-61
2023/01/17 03:09:08;;;;;;;;;4.00;4.00;;;;;4.59;72.23;98101.94;5036565;28;45976;-61
2023/01/17 03:11:34;;;;;;;;;7.75;7.75;;;;;4.61;72.72;98100.59;5018415;28;45555;-63
2023/01/17 03:13:59;;;;;;;;;8.50;7.00;;;;;4.58;72.17;98097.53;5002176;28;45481;-62
2023/01/17 03:16:27;;;;;;;;;8.25;6.00;;;;;4.55;72.58;98098.03;5018803;28;45442;-62
2023/01/17 03:18:52;;;;;;;;;12.20;11.20;;;;;4.32;72.35;98058.97;5018537;28;45370;-61
2023/01/17 03:21:18;;;;;;;;;9.00;8.25;;;;;4.37;72.48;98067.19;5036458;28;45347;-61
2023/01/17 03:23:44;;;;;;;;;12.40;12.00;;;;;4.48;73.09;98079.97;5018204;28;45373;-61
2023/01/17 03:26:09;;;;;;;;;9.75;9.75;;;;;4.41;72.76;98079.25;5018808;28;45528;-61
2023/01/17 03:28:35;;;;;;;;;10.00;10.00;;;;;4.22;73.07;98043.25;5036046;28;46514;-61
2023/01/17 03:31:00;;;;;;;;;9.25;8.00;;;;;4.35;73.52;98061.19;5018444;28;45359;-61
2023/01/17 03:33:26;;;;;;;;;12.50;12.50;;;;;4.42;72.85;98072.75;5036460;28;45351;-65
2023/01/17 03:35:53;;;;;;;;;16.25;10.00;;;;;4.42;73.08;98070.03;5018294;28;45548;-61
2023/01/17 03:38:19;;;;;;;;;9.20;9.20;;;;;4.45;72.63;98072.28;5036068;28;46150;-60
2023/01/17 03:40:45;;;;;;;;;15.80;13.60;;;;;4.48;72.77;98069.09;5035936;28;45422;-61
2023/01/17 03:43:10;;;;;;;;;12.75;12.00;;;;;4.45;73.29;98068.75;5036310;28;45435;-60
2023/01/17 03:45:36;;;;;;;;;13.75;10.50;;;;;4.47;73.38;98069.31;5036007;28;45442;-61
2023/01/17 03:48:02;;;;;;;;;16.75;12.00;;;;;4.47;72.72;98063.88;5035958;28;46371;-62
2023/01/17 03:50:27;;;;;;;;;12.50;12.50;;;;;4.19;73.21;98032.84;5035971;28;45384;-60
2023/01/17 03:52:53;;;;;;;;;16.00;13.00;;;;;4.24;73.03;98035.69;5035992;28;45293;-61
2023/01/17 03:55:18;;;;;;;;;12.00;12.00;;;;;4.41;73.45;98060.25;5036061;28;45533;-61
2023/01/17 03:57:44;;;;;;;;;17.25;13.50;;;;;4.39;73.55;98043.38;5035769;28;46408;-60
2023/01/17 04:00:10;;;;;;;;;13.25;9.25;;;;;4.44;73.20;98050.78;5035691;28;45438;-61
2023/01/17 04:02:35;;;;;;;;;13.80;12.80;;;;;4.44;73.31;98048.88;5035538;28;45429;-61
2023/01/17 04:05:01;;;;;;;;;16.50;13.75;;;;;4.47;72.62;98039.44;5035659;28;45267;-61
2023/01/17 04:07:26;;;;;;;;;13.25;11.00;;;;;4.56;72.57;98039.91;5035961;28;45829;-60
2023/01/17 04:09:52;;;;;;;;;14.75;13.50;;;;;4.47;72.97;98021.25;5035460;28;45383;-61
2023/01/17 04:12:18;;;;;;;;;13.60;13.20;;;;;4.44;73.10;98010.88;5017899;28;45442;-61
2023/01/17 04:14:44;;;;;;;;;19.25;14.75;;;;;4.62;73.16;98036.22;5035597;28;45399;-61
2023/01/17 04:17:12;;;;;;;;;12.00;10.00;;;;;4.62;72.50;98033.53;5035257;28;46925;-61
2023/01/17 04:19:38;;;;;;;;;15.40;13.00;;;;;4.63;72.98;98040.59;5035608;28;45395;-61
2023/01/17 04:22:03;;;;;;;;;12.50;10.75;;;;;4.64;72.29;98036.81;5035368;28;45411;-61
2023/01/17 04:24:29;;;;;;;;;19.50;14.00;;;;;4.62;72.40;98033.53;5035710;28;45539;-61
2023/01/17 04:26:55;;;;;;;;;15.75;13.00;;;;;4.64;73.21;98031.38;5035188;28;46308;-61
2023/01/17 04:29:20;;;;;;;;;15.50;13.00;;;;;4.48;72.53;98009.34;5035244;28;45438;-61
2023/01/17 04:31:47;;;;;;;;;13.25;12.50;;;;;4.60;72.27;98028.31;5017964;28;45640;-61
2023/01/17 04:34:13;;;;;;;;;16.80;14.80;;;;;4.65;72.33;98029.50;5001004;28;45355;-61
2023/01/17 04:36:38;;;;;;;;;18.50;12.25;;;;;4.64;73.20;98034.09;5017763;28;45684;-61
2023/01/17 04:39:04;;;;;;;;;12.50;8.50;;;;;4.64;72.96;98033.28;5034793;28;45402;-62
2023/01/17 04:41:29;;;;;;;;;11.50;10.50;;;;;4.59;73.17;98018.50;5035210;28;45438;-61
2023/01/17 04:43:55;;;;;;;;;11.25;9.00;;;;;4.65;73.02;98021.34;5035351;28;45388;-61
2023/01/17 04:46:20;;;;;;;;;17.75;15.75;;;;;4.63;72.45;98020.78;5034881;28;46684;-61
2023/01/17 04:48:46;;;;;;;;;12.00;11.50;;;;;4.59;72.35;98015.00;5035458;28;45398;-61
2023/01/17 04:51:11;;;;;;;;;18.50;12.50;;;;;4.58;71.96;98006.00;5034998;28;45390;-61
2023/01/17 04:53:37;;;;;;;;;12.75;12.25;;;;;4.57;72.19;98003.53;5035644;28;45408;-61
2023/01/17 04:56:03;;;;;;;;;9.25;9.25;;;;;4.55;72.69;98000.22;5034845;28;46251;-60
2023/01/17 04:58:28;;;;;;;;;12.75;12.75;;;;;4.50;73.12;97997.41;5017335;28;45377;-61
2023/01/17 05:00:54;;;;;;;;;16.25;10.00;;;;;4.48;72.32;98003.91;5035348;28;45391;-61
2023/01/17 05:03:20;;;;;;;;;17.75;9.75;;;;;4.49;72.34;98004.75;5001844;28;45402;-61
2023/01/17 05:05:46;;;;;;;;;13.80;12.20;;;;;4.50;72.55;97994.69;5013592;28;46891;-60
2023/01/17 05:08:11;;;;;;;;;14.00;11.50;;;;;4.45;73.48;97993.53;5033443;28;45254;-61
2023/01/17 05:10:37;;;;;;;;;13.75;12.50;;;;;4.46;72.83;97988.91;5041601;28;45272;-61
2023/01/17 05:13:02;;;;;;;;;13.50;12.00;;;;;4.42;73.55;97988.56;5023923;28;45475;-60
2023/01/17 05:15:28;;;;;;;;;21.50;17.25;;;;;4.42;73.72;97982.28;5041213;28;45410;-62
2023/01/17 05:17:54;;;;;;;;;17.25;17.00;;;;;4.38;73.52;97971.06;5041710;28;45520;-62
2023/01/17 05:20:20;;;;;;;;;20.50;12.75;;;;;4.40;73.68;97968.97;5041614;28;45307;-60
2023/01/17 05:22:55;;;;;;;;;17.60;15.60;;;;;4.40;72.56;97971.69;5042050;28;45434;-61
2023/01/17 05:25:23;;;;;;;;;24.20;17.40;;;;;4.39;73.01;97971.91;5041024;28;46927;-62
2023/01/17 05:27:49;;;;;;;;;20.80;15.20;;;;;4.38;72.86;97967.56;5007044;28;45302;-61
2023/01/17 05:30:16;;;;;;;;;15.75;15.00;;;;;4.33;72.78;97960.94;5041342;28;45296;-61
2023/01/17 05:32:44;;;;;;;;;13.00;13.00;;;;;4.25;72.75;97955.03;5023830;28;45569;-61
2023/01/17 05:35:10;;;;;;;;;14.80;14.80;;;;;4.34;72.88;97956.34;5006533;28;45672;-61
2023/01/17 05:37:35;;;;;;;;;16.50;15.75;;;;;4.35;73.21;97955.28;5041177;28;45292;-61
2023/01/17 05:40:02;;;;;;;;;15.00;13.00;;;;;4.31;73.48;97949.50;5023191;28;45344;-61
2023/01/17 05:42:28;;;;;;;;;12.20;12.00;;;;;4.33;73.14;97950.06;5023849;28;45607;-61
2023/01/17 05:44:53;;;;;;;;;15.50;13.00;;;;;4.34;73.33;97948.19;5022774;28;45335;-61
2023/01/17 05:47:19;;;;;;;;;12.40;11.80;;;;;4.33;73.01;97941.13;5023261;28;45322;-61
2023/01/17 05:49:45;;;;;;;;;13.50;12.75;;;;;4.33;73.35;97941.13;5022961;28;45291;-61
2023/01/17 05:52:10;;;;;;;;;13.75;12.75;;;;;4.34;72.96;97945.47;5041395;28;45593;-61
2023/01/17 05:54:36;;;;;;;;;11.50;9.75;;;;;4.37;73.01;97941.47;5022526;28;45565;-61
2023/01/17 05:57:01;;;;;;;;;14.25;13.25;;;;;4.36;72.88;97937.91;5041052;28;45342;-61
2023/01/17 05:59:27;;;;;;;;;15.50;12.00;;;;;4.42;73.49;97941.53;5023077;28;45430;-62
2023/01/17 06:01:53;;;;;;;;;14.00;11.00;;;;;4.44;72.54;97940.25;5023071;28;45377;-62
2023/01/17 06:04:18;;;;;;;;;15.80;12.60;;;;;4.23;73.55;97902.88;5033315;28;46928;-63
2023/01/17 06:06:44;;;;;;;;;13.25;11.00;;;;;4.41;73.29;97935.31;5045333;28;45454;-62
2023/01/17 06:09:10;;;;;;;;;18.00;13.50;;;;;4.44;72.58;97934.81;5041183;28;45361;-62
2023/01/17 06:11:36;;;;;;;;;12.40;10.60;;;;;4.47;73.64;97928.06;5039856;28;45462;-63
2023/01/17 06:14:01;;;;;;;;;19.50;15.25;;;;;4.53;72.56;97931.75;5040275;28;45552;-62
2023/01/17 06:16:27;;;;;;;;;17.00;17.00;;;;;4.56;72.69;97928.53;5040655;28;45406;-62
2023/01/17 06:18:52;;;;;;;;;16.75;15.75;;;;;4.24;72.43;97872.78;5021170;28;45275;-62
2023/01/17 06:21:18;;;;;;;;;21.25;17.75;;;;;4.61;72.77;97929.44;5037275;28;45298;-62
2023/01/17 06:23:44;;;;;;;;;22.40;17.00;;;;;4.64;72.85;97941.72;5036978;28;46310;-63
2023/01/17 06:26:09;;;;;;;;;19.75;16.50;;;;;4.65;72.68;97929.81;5037091;28;45365;-61
2023/01/17 06:28:35;;;;;;;;;20.00;15.75;;;;;4.69;72.99;97925.53;5019363;28;45264;-62
2023/01/17 06:31:05;;;;;;;;;20.75;20.00;;;;;4.65;72.08;97926.25;5037096;28;45254;-61
2023/01/17 06:33:31;;;;;;;;;19.80;17.60;;;;;4.47;72.48;97893.59;5037248;28;45766;-61
2023/01/17 06:35:56;;;;;;;;;18.25;16.00;;;;;4.68;72.51;97929.31;5036372;28;45295;-61
2023/01/17 06:38:22;;;;;;;;;23.00;18.75;;;;;4.69;73.28;97930.16;5037153;28;45408;-61
2023/01/17 06:40:47;;;;;;;;;17.75;17.75;;;;;4.65;72.90;97937.97;5037050;28;45366;-61
2023/01/17 06:43:13;;;;;;;;;14.25;13.75;;;;;4.62;72.50;97933.00;5018916;28;45420;-61
2023/01/17 06:45:38;;;;;;;;;21.50;18.25;;;;;4.58;73.70;97934.53;5018961;28;45484;-62
2023/01/17 06:48:04;;;;;;;;;23.75;18.50;;;;;4.52;73.94;97916.47;5035735;28;45445;-61
2023/01/17 06:50:30;;;;;;;;;19.50;15.50;;;;;4.37;73.20;97895.28;5037429;28;45335;-61
2023/01/17 06:52:58;;;;;;;;;20.60;17.40;;;;;4.53;73.45;97916.25;5018869;28;45895;-61
2023/01/17 06:55:27;;;;;;;;;19.80;16.40;;;;;4.63;73.19;97925.69;5019215;28;45430;-61
2023/01/17 06:57:56;;;;;;;;;22.00;17.60;;;;;4.47;73.35;97901.75;5037186;28;45287;-62
2023/01/17 07:00:22;;;;;;;;;18.80;18.40;;;;;4.66;73.46;97922.47;5019038;28;45558;-62
2023/01/17 07:02:49;;;;;;;;;23.00;21.25;;;;;4.62;73.02;97919.41;5018947;28;47317;-62
2023/01/17 07:05:16;;;;;;;;;24.20;21.20;;;;;4.66;72.71;97919.75;5018417;28;45421;-62
2023/01/17 07:07:42;;;;;;;;;19.80;18.20;;;;;4.65;73.25;97921.66;5019359;28;45389;-62
2023/01/17 07:10:09;;;;;;;;;23.20;17.80;;;;;4.70;73.33;97921.72;5036862;28;45414;-62
2023/01/17 07:12:37;;;;;;;;;26.40;23.80;;;;;4.40;73.59;97875.78;5018672;28;46687;-62
2023/01/17 07:15:03;;;;;;;;;29.80;21.80;;;;;4.70;73.47;97920.91;5036359;28;45608;-62
2023/01/17 07:17:29;;;;;;;;;23.00;19.80;;;;;4.73;73.53;97932.13;5036866;28;45458;-62
2023/01/17 07:19:54;;;;;;;;;15.00;13.50;;;;;4.77;73.78;97935.19;5037062;28;45465;-62
2023/01/17 07:22:20;;;;;;;;;21.75;16.75;;;;;4.81;73.67;97930.09;5011071;28;46544;-65
2023/01/17 07:24:45;;;;;;;;;27.50;17.50;;;;;4.83;73.43;97934.22;5033819;28;45498;-64
2023/01/17 07:27:11;;;;;;;;;21.50;20.00;;;;;4.79;73.00;97929.50;5035276;28;45513;-65
2023/01/17 07:29:37;;;;;;;;;13.75;13.75;;;;;4.57;72.72;97894.84;5036039;28;45275;-66
2023/01/17 07:32:02;;;;;;;;;16.75;14.00;;;;;4.83;73.05;97931.50;5036044;28;45364;-65
2023/01/17 07:34:28;;;;;;;;;17.75;15.50;;;;;4.85;73.68;97925.78;5018569;28;45341;-63
2023/01/17 07:36:53;;;;;;;;;22.25;21.00;;;;;4.85;72.86;97921.19;5018514;28;45853;-64
2023/01/17 07:39:19;;;;;;;;;19.75;17.00;;;;;4.88;73.31;97922.59;5018329;28;45213;-64
2023/01/17 07:41:45;;;;;;;;;16.40;13.40;;;;;4.86;72.86;97927.47;5018409;28;45298;-63
2023/01/17 07:44:11;;;;;;;;;19.40;17.00;;;;;4.81;73.14;97913.78;5018042;28;45391;-64
2023/01/17 07:46:37;;;;;;;;;13.50;12.00;;;;;4.78;72.88;97914.25;5036033;28;45387;-63
2023/01/17 07:49:03;;;;;;;;;18.00;12.00;;;;;4.83;73.26;97927.94;5018458;28;45658;-62
2023/01/17 07:51:28;;;;;;;;;20.50;16.50;;;;;4.82;73.07;97915.41;5035545;28;45857;-63
2023/01/17 07:53:54;;;;;;;;;17.50;16.25;;;;;4.85;73.06;97915.75;4936116;28;45643;-63
2023/01/17 07:56:19;;;;;;;;;21.75;17.00;;;;;4.90;73.79;97927.81;5033283;28;45468;-62
2023/01/17 07:58:46;;;;;;;;;21.50;17.00;;;;;4.92;73.64;97921.06;5008557;28;45810;-64
2023/01/17 08:01:12;;;;;;;;;21.20;20.80;;;;;4.92;73.84;97917.50;5035366;28;46655;-66
2023/01/17 08:03:40;;;;;;;;;20.25;17.25;;;;;4.92;73.10;97929.22;5030434;28;45761;-63
2023/01/17 08:06:12;;;;;;;;;16.00;16.00;;;;;4.92;73.42;97928.38;5014443;28;45915;-62
2023/01/17 08:08:38;;;;;;;;;14.20;13.80;;;;;4.83;73.58;97919.78;5014679;28;45998;-63
2023/01/17 08:11:04;;;;;;;;;14.75;13.75;;;;;4.87;74.02;97929.13;5015345;28;45342;-63
2023/01/17 08:13:29;;;;;;;;;20.50;14.75;;;;;4.89;73.15;97932.41;5014093;28;45340;-66
2023/01/17 08:15:55;;;;;;;;;11.75;11.75;;;;;4.92;73.98;97934.66;5015609;28;45355;-67
2023/01/17 08:18:20;;;;;;;;;17.00;13.25;;;;;4.54;74.20;97874.44;5031302;28;45412;-68
2023/01/17 08:20:46;;;;;;;;;13.00;11.50;;;;;4.79;73.51;97915.94;5015655;28;45315;-68
2023/01/17 08:23:11;;;;;;;;;18.50;14.00;;;;;4.84;73.49;97937.75;4996567;28;45793;-67
2023/01/17 08:25:37;;;;;;;;;13.75;11.00;;;;;4.85;74.08;97942.09;5050646;28;45817;-65
2023/01/17 08:28:03;;;;;;;;;17.00;15.25;;;;;4.76;73.77;97936.25;5045836;28;45445;-65
2023/01/17 08:30:28;;;;;;;;;14.50;14.50;;;;;4.82;73.67;97931.72;5033749;28;46568;-66
2023/01/17 08:32:54;;;;;;;;;18.50;16.75;;;;;4.87;73.98;97945.41;5031055;28;45499;-65
2023/01/17 08:35:20;;;;;;;;;17.00;14.25;;;;;4.79;73.54;97938.47;5033772;28;45374;-65
2023/01/17 08:37:46;;;;;;;;;9.50;9.50;;;;;4.78;74.00;97942.25;5032710;28;45305;-66
2023/01/17 08:40:15;;;;;;;;;15.40;12.20;;;;;4.83;73.43;97938.81;5033521;28;46563;-66
2023/01/17 08:42:42;;;;;;;;;15.20;15.20;;;;;4.86;73.70;97938.34;5027668;28;45928;-68
2023/01/17 08:45:09;;;;;;;;;21.00;17.00;;;;;4.82;73.02;97924.41;5025002;28;45562;-69
2023/01/17 08:47:35;;;;;;;;;18.00;17.80;;;;;4.77;73.57;97929.75;5032450;28;45362;-66
2023/01/17 08:50:00;;;;;;;;;14.20;13.40;;;;;4.80;72.87;97931.16;5048946;28;46313;-66
2023/01/17 08:52:27;;;;;;;;;14.25;12.00;;;;;4.83;73.44;97936.94;5048513;28;45472;-63
2023/01/17 08:54:52;;;;;;;;;17.40;14.40;;;;;4.78;73.06;97922.41;5008160;28;45531;-62
2023/01/17 08:57:19;;;;;;;;;16.75;15.75;;;;;4.89;73.24;97929.69;5030002;28;45524;-60
2023/01/17 08:59:45;;;;;;;;;19.40;15.60;;;;;4.91;73.19;97918.56;5031815;28;45710;-63
2023/01/17 09:02:14;;;;;;;;;14.20;12.00;;;;;4.96;73.05;97921.41;5030656;28;45595;-61
2023/01/17 09:04:44;;;;;;;;;16.00;15.20;;;;;4.98;72.79;97928.25;5047738;28;45476;-62
2023/01/17 09:07:09;;;;;;;;;16.40;13.80;;;;;4.89;73.05;97924.25;5032995;28;45619;-63
2023/01/17 09:09:35;;;;;;;;;22.00;17.00;;;;;4.94;73.45;97927.06;5032164;28;46129;-62
2023/01/17 09:12:00;;;;;;;;;18.50;17.25;;;;;4.95;72.28;97920.56;5033579;28;45325;-62
2023/01/17 09:14:26;;;;;;;;;15.25;14.50;;;;;5.03;73.11;97919.34;5034685;28;45854;-63
2023/01/17 09:16:51;;;;;;;;;15.50;13.50;;;;;5.09;72.61;97923.81;5034314;28;45255;-63
2023/01/17 09:19:17;;;;;;;;;11.00;9.50;;;;;5.12;72.73;97919.78;5032978;28;47679;-63
2023/01/17 09:21:42;;;;;;;;;13.25;10.75;;;;;5.18;72.53;97923.38;5034517;28;45434;-63
2023/01/17 09:24:08;;;;;;;;;12.75;11.00;;;;;5.13;71.82;97924.94;5034482;28;45719;-63
2023/01/17 09:26:34;;;;;;;;;12.50;11.00;;;;;5.06;72.06;97921.56;5013081;28;45473;-63
2023/01/17 09:28:59;;;;;;;;;12.75;9.50;;;;;5.02;72.40;97915.78;5032363;28;46097;-64
2023/01/17 09:31:25;;;;;;;;;14.25;13.25;;;;;5.08;71.63;97924.03;5032814;28;45368;-63
2023/01/17 09:33:52;;;;;;;;;11.00;9.60;;;;;5.11;72.37;97927.09;5032766;28;45341;-62
2023/01/17 09:36:17;;;;;;;;;13.80;11.40;;;;;5.17;71.71;97928.00;5032998;28;45980;-62
2023/01/17 09:38:43;;;;;;;;;10.25;10.25;;;;;5.20;71.79;97934.84;5015564;28;46021;-62
2023/01/17 09:41:20;;;;;;;;;14.75;12.25;;;;;4.53;72.18;97853.78;5030940;28;45310;-63
2023/01/17 09:44:24;;;;;;;;;13.40;13.40;;;;;5.14;72.28;97934.75;5048218;28;45380;-64
2023/01/17 09:46:52;;;;;;;;;12.40;9.60;;;;;5.14;71.85;97934.75;5031274;28;45735;-63
2023/01/17 09:49:39;;;;;;;;;9.40;8.60;;;;;5.16;71.77;97937.22;5030556;28;48620;-64
2023/01/17 09:52:05;;;;;;;;;12.60;9.80;;;;;5.25;72.47;97941.22;5031681;28;45556;-63
2023/01/17 09:54:35;;;;;;;;;10.40;9.40;;;;;5.24;71.65;97944.97;5034590;28;45477;-63
2023/01/17 09:57:25;;;;;;;;;9.80;9.80;;;;;5.33;72.16;97947.31;5051329;28;45395;-64
2023/01/17 09:59:57;;;;;;;;;14.00;10.20;;;;;5.35;71.57;97954.16;5035906;28;46275;-65
2023/01/17 10:02:35;;;;;;;;;10.00;8.80;;;;;5.36;71.39;97957.69;5049451;28;45485;-62
2023/01/17 10:05:36;;;;;;;;;13.20;10.00;;;;;5.40;71.95;97961.56;5026565;28;45408;-64
2023/01/17 10:08:11;;;;;;;;;21.00;17.40;;;;;5.29;70.91;97964.09;5026750;28;45736;-64
2023/01/17 10:10:52;;;;;;;;;10.00;10.00;;;;;5.19;70.85;97963.09;5036345;28;45872;-63
2023/01/17 10:13:37;;;;;;;;;15.40;14.40;;;;;5.26;71.59;97963.78;5051096;28;45411;-63
2023/01/17 10:16:37;;;;;;;;;10.80;9.60;;;;;5.24;71.09;97966.72;5033553;28;45563;-63
2023/01/17 10:19:14;;;;;;;;;11.60;9.80;;;;;5.19;71.36;97971.25;5036263;28;45381;-63
2023/01/17 10:22:09;;;;;;;;;12.60;10.00;;;;;5.07;72.43;97960.47;5035492;28;45672;-63
2023/01/17 10:25:13;;;;;;;;;11.20;9.40;;;;;5.15;71.87;97965.50;5050339;28;45474;-64
2023/01/17 10:27:58;;;;;;;;;11.00;9.20;;;;;5.17;71.11;97966.06;4987516;28;45537;-63
2023/01/17 10:30:39;;;;;;;;;11.40;11.40;;;;;5.20;71.46;97965.59;4993587;28;45424;-63
2023/01/17 10:33:21;;;;;;;;;16.80;13.40;;;;;5.24;71.65;97964.00;5007884;28;46875;-67
2023/01/17 10:36:02;;;;;;;;;17.80;13.80;;;;;5.31;71.61;97944.81;5014614;28;45458;-63
2023/01/17 10:38:30;;;;;;;;;10.60;6.60;;;;;5.50;70.46;97958.19;5043203;28;45540;-65
2023/01/17 10:40:59;;;;;;;;;17.00;10.20;;;;;5.48;71.37;97949.44;5034703;28;45474;-61
2023/01/17 10:43:48;;;;;;;;;13.00;12.00;;;;;5.29;71.21;97934.19;5033900;28;45527;-60
2023/01/17 10:46:19;;;;;;;;;24.20;17.60;;;;;4.75;71.38;97843.03;5014400;28;45513;-62
2023/01/17 10:48:46;;;;;;;;;14.80;13.40;;;;;5.40;71.29;97959.66;5014442;28;45803;-62
2023/01/17 10:51:30;;;;;;;;;17.80;12.80;;;;;5.42;71.30;97964.84;5014150;28;45382;-61
2023/01/17 10:54:26;;;;;;;;;18.00;15.80;;;;;5.48;70.99;97954.88;5032956;28;45896;-61
2023/01/17 10:56:52;;;;;;;;;27.20;17.00;;;;;5.51;71.46;97954.41;5035139;28;45373;-62
2023/01/17 10:59:31;;;;;;;;;16.00;16.00;;;;;5.56;71.59;97957.22;5033908;28;45428;-65
2023/01/17 11:01:59;;;;;;;;;14.40;12.00;;;;;5.59;70.82;97951.25;5034407;28;45434;-64
2023/01/17 11:04:36;;;;;;;;;16.40;11.40;;;;;5.57;71.32;97946.06;5066539;28;46812;-63
2023/01/17 11:07:20;;;;;;;;;14.40;12.40;;;;;5.63;71.32;97940.69;5034419;28;45367;-63
2023/01/17 11:09:48;;;;;;;;;21.60;16.40;;;;;5.65;70.76;97942.09;5050947;28;45369;-63
2023/01/17 11:12:27;;;;;;;;;16.40;13.80;;;;;5.48;70.77;97898.59;5050852;28;45502;-63
2023/01/17 11:15:03;;;;;;;;;16.00;14.80;;;;;5.73;71.23;97931.88;5035226;28;46384;-63
2023/01/17 11:17:28;;;;;;;;;11.40;11.40;;;;;5.73;71.26;97929.97;5034362;28;45519;-64
2023/01/17 11:20:11;;;;;;;;;15.75;15.75;;;;;5.66;70.68;97918.44;5050421;28;45330;-64
2023/01/17 11:22:36;;;;;;;;;17.20;14.00;;;;;5.68;70.82;97911.69;5034026;28;45925;-64
2023/01/17 11:25:02;;;;;;;;;15.50;11.75;;;;;5.57;69.87;97883.47;5050566;28;45561;-63
2023/01/17 11:27:28;;;;;;;;;12.25;10.25;;;;;5.77;70.26;97925.66;5050779;28;45446;-63
2023/01/17 11:30:18;;;;;;;;;13.60;11.40;;;;;5.77;70.56;97920.22;5024900;28;45383;-63
2023/01/17 11:32:54;;;;;;;;;15.20;11.40;;;;;5.81;70.10;97921.38;5030784;28;46636;-62
2023/01/17 11:35:24;;;;;;;;;12.20;11.20;;;;;5.75;70.61;97905.22;5054783;28;45865;-62
2023/01/17 11:38:05;;;;;;;;;15.60;13.80;;;;;5.93;70.28;97918.53;5037645;28;45355;-65
2023/01/17 11:40:36;;;;;;;;;12.60;11.60;;;;;5.90;69.71;97913.63;5038076;28;45383;-63
2023/01/17 11:43:20;;;;;;;;;11.40;11.20;;;;;5.62;70.52;97885.47;5038048;28;45343;-64
2023/01/17 11:45:58;;;;;;;;;14.00;12.80;;;;;5.94;70.09;97912.03;5054498;28;47285;-63
2023/01/17 11:48:24;;;;;;;;;17.40;15.00;;;;;5.95;69.84;97904.69;5054970;28;45352;-66
2023/01/17 11:50:53;;;;;;;;;21.00;17.50;;;;;5.87;70.04;97905.94;5056013;28;45445;-63
2023/01/17 11:53:27;;;;;;;;;17.40;13.00;;;;;5.90;69.98;97918.22;5056458;28;45374;-62
2023/01/17 11:56:17;;;;;;;;;21.40;18.40;;;;;5.75;69.85;97921.53;4976977;28;48017;-63
2023/01/17 11:58:44;;;;;;;;;18.60;13.40;;;;;5.69;70.22;97913.31;5011768;28;47247;-61
2023/01/17 12:01:19;;;;;;;;;15.20;13.80;;;;;5.42;71.32;97892.25;5029658;28;45957;-61
2023/01/17 12:04:15;;;;;;;;;11.40;11.40;;;;;5.54;70.62;97897.59;5013510;28;45645;-62
2023/01/17 12:07:09;;;;;;;;;17.00;15.40;;;;;5.09;70.46;97847.66;4997703;28;45831;-62
2023/01/17 12:09:42;;;;;;;;;15.40;13.40;;;;;5.39;71.67;97892.72;5006597;28;45529;-60
2023/01/17 12:15:40;;;;;;;;;22.60;15.60;;;;;5.48;70.63;97895.03;5029479;28;45441;-62
2023/01/17 12:18:08;;;;;;;;;14.40;13.40;;;;;5.46;70.82;97883.56;5014187;28;46214;-61
2023/01/17 12:20:45;;;;;;;;;10.80;9.60;;;;;5.12;71.38;97824.59;5031644;28;45442;-61
2023/01/17 12:23:40;;;;;;;;;14.60;14.60;;;;;5.48;71.35;97882.25;5045753;28;45805;-59
2023/01/17 12:26:22;;;;;;;;;16.60;14.20;;;;;5.46;71.04;97859.94;5042860;28;45416;-62
2023/01/17 12:29:21;;;;;;;;;21.60;15.80;;;;;5.54;70.88;97875.81;5046101;28;48121;-61
2023/01/17 12:32:20;;;;;;;;;17.20;17.20;;;;;5.46;70.81;97868.09;5026614;28;45446;-62
2023/01/17 12:34:51;;;;;;;;;15.00;13.40;;;;;5.59;70.68;97888.66;5027082;28;45804;-63
2023/01/17 12:37:35;;;;;;;;;16.40;13.60;;;;;5.47;70.28;97855.28;5046314;28;45873;-61
2023/01/17 12:40:21;;;;;;;;;18.20;14.00;;;;;5.54;70.93;97874.97;5014178;28;46172;-59
2023/01/17 12:43:07;;;;;;;;;14.00;13.80;;;;;5.46;70.95;97878.13;4998625;28;45470;-62
2023/01/17 12:45:36;;;;;;;;;14.60;13.60;;;;;5.43;70.88;97871.28;5012819;28;45479;-62
2023/01/17 12:48:10;;;;;;;;;14.00;13.40;;;;;5.42;71.22;97873.19;5026392;28;45817;-61
2023/01/17 12:50:44;;;;;;;;;16.00;10.80;;;;;5.41;71.67;97876.97;5049058;28;45609;-64
2023/01/17 12:53:47;;;;;;;;;21.40;15.20;;;;;5.43;71.90;97874.84;5035504;28;45529;-63
2023/01/17 12:56:51;;;;;;;;;13.20;13.00;;;;;5.51;70.59;97872.78;5031963;28;45476;-62
2023/01/17 12:59:37;;;;;;;;;13.00;11.40;;;;;5.42;71.25;97877.81;5036648;28;45395;-62
2023/01/17 13:02:32;;;;;;;;;17.00;13.00;;;;;5.09;71.31;97833.25;5054216;28;45709;-62
2023/01/17 13:05:14;;;;;;;;;13.00;12.60;;;;;5.37;71.31;97889.44;5032375;28;46039;-63
2023/01/17 13:07:54;;;;;;;;;16.80;13.20;;;;;5.33;71.02;97871.97;5030940;28;45877;-63
2023/01/17 13:10:30;;;;;;;;;17.20;13.20;;;;;5.44;71.74;97872.94;5029301;28;45570;-62
2023/01/17 13:12:57;;;;;;;;;13.60;12.20;;;;;5.43;71.13;97869.41;5030043;28;47341;-63